Time;durP1;ratioP1;P1;durP2;ratioP2;P2;SDS_P1;SDS_P2;PMS_P1;PMS_P2;Temp;Humidity;BMP_temperature;BMP_pressure;BME280_temperature;BME280_humidity;BME280_pressure;Samples;Min_cycle;Max_cycle;Signal;HPM_P1;HPM_P2
2022/07/24 00:02:06;;;;;;;0.30;0.30;;;16.00;99.90;;;;;;4914850;28;20126;-82
2022/07/24 00:04:32;;;;;;;0.30;0.30;;;15.90;99.90;;;;;;4925134;28;20050;-81
2022/07/24 00:06:58;;;;;;;0.32;0.32;;;15.80;99.90;;;;;;4893200;28;20763;-82
2022/07/24 00:09:24;;;;;;;0.30;0.30;;;15.80;99.90;;;;;;4913632;28;20054;-82
2022/07/24 00:11:50;;;;;;;0.30;0.30;;;15.80;99.90;;;;;;4930685;28;20705;-81
2022/07/24 00:14:15;;;;;;;0.30;0.30;;;15.80;99.90;;;;;;4931822;28;20513;-81
2022/07/24 00:16:41;;;;;;;0.30;0.30;;;15.80;99.90;;;;;;4909958;28;20058;-81
2022/07/24 00:19:07;;;;;;;0.30;0.30;;;15.80;99.90;;;;;;4930936;28;20045;-81
2022/07/24 00:21:33;;;;;;;0.30;0.30;;;15.80;99.90;;;;;;4935399;28;20046;-81
2022/07/24 00:23:59;;;;;;;0.30;0.30;;;15.80;99.90;;;;;;4916985;28;20089;-81
2022/07/24 00:26:25;;;;;;;0.30;0.30;;;15.80;99.90;;;;;;4914636;28;20047;-81
2022/07/24 00:28:51;;;;;;;0.30;0.30;;;15.80;99.90;;;;;;4916390;28;20516;-81
2022/07/24 00:31:16;;;;;;;0.30;0.30;;;15.80;99.90;;;;;;4923786;28;20137;-81
2022/07/24 00:33:42;;;;;;;0.30;0.30;;;15.90;99.90;;;;;;4939639;28;20052;-81
2022/07/24 00:36:08;;;;;;;0.30;0.30;;;15.80;99.90;;;;;;4942378;28;20058;-81
2022/07/24 00:38:34;;;;;;;0.30;0.30;;;15.80;99.90;;;;;;4940017;28;20161;-82
2022/07/24 00:41:00;;;;;;;0.30;0.30;;;15.80;99.90;;;;;;4924053;28;20039;-82
2022/07/24 00:43:26;;;;;;;0.30;0.30;;;15.70;99.90;;;;;;4928789;28;20539;-82
2022/07/24 00:45:51;;;;;;;0.30;0.30;;;15.70;99.90;;;;;;4920265;28;20141;-82
2022/07/24 00:48:18;;;;;;;0.30;0.30;;;15.70;99.90;;;;;;4929036;28;20942;-82
2022/07/24 00:50:44;;;;;;;0.30;0.30;;;15.60;99.90;;;;;;4930645;28;20057;-80
2022/07/24 00:53:10;;;;;;;0.30;0.30;;;15.60;99.90;;;;;;4918548;28;20109;-81
2022/07/24 00:55:37;;;;;;;0.30;0.30;;;15.70;99.90;;;;;;4897995;28;20618;-81
2022/07/24 00:58:03;;;;;;;0.40;0.40;;;15.70;99.90;;;;;;4921462;28;20456;-81
2022/07/24 01:00:29;;;;;;;0.30;0.30;;;15.60;99.90;;;;;;4942667;28;20592;-81
2022/07/24 01:02:56;;;;;;;0.30;0.30;;;15.60;99.90;;;;;;4924979;28;20820;-81
2022/07/24 01:05:21;;;;;;;0.30;0.30;;;15.50;99.90;;;;;;4923436;28;20055;-81
2022/07/24 01:07:48;;;;;;;0.30;0.30;;;15.40;99.90;;;;;;4940130;28;20054;-81
2022/07/24 01:10:14;;;;;;;0.30;0.30;;;15.40;99.90;;;;;;4942061;28;20054;-81
2022/07/24 01:12:40;;;;;;;0.30;0.30;;;15.40;99.90;;;;;;4942888;28;20053;-82
2022/07/24 01:15:09;;;;;;;0.30;0.30;;;15.40;99.90;;;;;;4949931;28;20085;-81
2022/07/24 01:17:36;;;;;;;0.30;0.30;;;15.30;99.90;;;;;;4948328;28;20049;-81
2022/07/24 01:20:04;;;;;;;0.30;0.30;;;15.40;99.90;;;;;;4939115;28;20073;-81
2022/07/24 01:22:30;;;;;;;0.30;0.30;;;15.60;99.90;;;;;;4932754;28;20054;-81
2022/07/24 01:24:56;;;;;;;0.30;0.30;;;15.50;99.90;;;;;;4954653;28;20042;-81
2022/07/24 01:27:23;;;;;;;0.30;0.30;;;15.60;99.90;;;;;;4951688;28;20045;-81
2022/07/24 01:29:50;;;;;;;0.30;0.30;;;15.60;99.90;;;;;;4934700;28;20078;-81
2022/07/24 01:32:16;;;;;;;0.30;0.30;;;15.60;99.90;;;;;;4949679;28;20085;-81
2022/07/24 01:34:42;;;;;;;0.30;0.30;;;15.60;99.90;;;;;;4950076;28;20138;-81
2022/07/24 01:37:08;;;;;;;0.30;0.30;;;15.50;99.90;;;;;;4953803;28;20883;-83
2022/07/24 01:39:33;;;;;;;0.30;0.30;;;15.60;99.90;;;;;;4932874;28;20050;-82
2022/07/24 01:41:59;;;;;;;0.40;0.40;;;15.50;99.90;;;;;;4938356;28;20046;-81
2022/07/24 01:44:25;;;;;;;0.30;0.30;;;15.50;99.90;;;;;;4937429;28;20469;-81
2022/07/24 01:46:51;;;;;;;0.30;0.30;;;15.50;99.90;;;;;;4937930;28;20819;-80
2022/07/24 01:49:17;;;;;;;0.40;0.40;;;15.40;99.90;;;;;;4955978;28;20035;-81
2022/07/24 01:51:43;;;;;;;0.30;0.30;;;15.40;99.90;;;;;;4955875;28;20038;-81
2022/07/24 01:54:08;;;;;;;0.30;0.30;;;15.40;99.90;;;;;;4956038;28;20107;-81
2022/07/24 01:56:34;;;;;;;0.30;0.30;;;15.40;99.90;;;;;;4952678;28;20129;-81
2022/07/24 01:59:00;;;;;;;0.52;0.40;;;15.40;99.90;;;;;;4932805;28;20604;-81
2022/07/24 02:01:26;;;;;;;0.30;0.30;;;15.40;99.90;;;;;;4929362;28;20549;-81
2022/07/24 02:03:52;;;;;;;0.38;0.38;;;15.40;99.90;;;;;;4935285;28;20236;-81
2022/07/24 02:06:18;;;;;;;0.40;0.40;;;15.40;99.90;;;;;;4955290;28;20054;-81
2022/07/24 02:08:44;;;;;;;0.30;0.30;;;15.50;99.90;;;;;;4937073;28;20129;-81
2022/07/24 02:11:11;;;;;;;0.30;0.30;;;15.50;99.90;;;;;;4939707;28;20050;-82
2022/07/24 02:13:37;;;;;;;0.30;0.30;;;15.50;99.90;;;;;;4938510;28;20058;-81
2022/07/24 02:16:03;;;;;;;0.30;0.30;;;15.50;99.90;;;;;;4944536;28;20105;-81
2022/07/24 02:18:29;;;;;;;0.30;0.30;;;15.50;99.90;;;;;;4956089;28;20425;-81
2022/07/24 02:20:55;;;;;;;0.30;0.30;;;15.50;99.90;;;;;;4940292;28;20069;-82
2022/07/24 02:23:21;;;;;;;0.30;0.30;;;15.50;99.90;;;;;;4952165;28;20125;-81
2022/07/24 02:25:49;;;;;;;0.30;0.30;;;15.40;99.90;;;;;;4956019;28;20050;-82
2022/07/24 02:28:15;;;;;;;0.30;0.30;;;15.40;99.90;;;;;;4955872;28;20043;-82
2022/07/24 02:30:42;;;;;;;0.40;0.40;;;15.40;99.90;;;;;;4939206;28;20084;-81
2022/07/24 02:33:09;;;;;;;0.30;0.30;;;15.50;99.90;;;;;;4950840;28;20644;-81
2022/07/24 02:35:35;;;;;;;0.40;0.40;;;15.50;99.90;;;;;;4934746;28;20053;-81
2022/07/24 02:38:02;;;;;;;0.30;0.30;;;15.40;99.90;;;;;;4951161;28;20567;-81
2022/07/24 02:40:27;;;;;;;0.30;0.30;;;15.50;99.90;;;;;;4952139;28;20064;-81
2022/07/24 02:42:54;;;;;;;0.30;0.30;;;15.50;99.90;;;;;;4934483;28;20058;-81
2022/07/24 02:45:19;;;;;;;0.30;0.30;;;15.50;99.90;;;;;;4936488;28;20062;-81
2022/07/24 02:47:48;;;;;;;0.30;0.30;;;15.50;99.90;;;;;;4935189;28;20089;-82
2022/07/24 02:50:14;;;;;;;0.30;0.30;;;15.50;99.90;;;;;;4952187;28;20058;-81
2022/07/24 02:52:40;;;;;;;0.40;0.40;;;15.50;99.90;;;;;;4948677;28;20153;-81
2022/07/24 02:55:06;;;;;;;0.30;0.30;;;15.50;99.90;;;;;;4933963;28;20054;-80
2022/07/24 02:57:32;;;;;;;0.30;0.30;;;15.40;99.90;;;;;;4922920;28;20057;-81
2022/07/24 02:59:57;;;;;;;0.30;0.30;;;15.40;99.90;;;;;;4951274;28;20047;-81
2022/07/24 03:02:23;;;;;;;0.30;0.30;;;15.40;99.90;;;;;;4953222;28;20046;-81
2022/07/24 03:04:49;;;;;;;0.30;0.30;;;15.40;99.90;;;;;;4952450;28;20046;-81
2022/07/24 03:07:15;;;;;;;0.30;0.30;;;15.40;99.90;;;;;;4951396;28;20090;-80
2022/07/24 03:09:40;;;;;;;0.30;0.30;;;15.40;99.90;;;;;;4936301;28;20108;-81
2022/07/24 03:12:07;;;;;;;0.30;0.30;;;15.40;99.90;;;;;;4951175;28;20074;-81
2022/07/24 03:14:33;;;;;;;0.30;0.30;;;15.40;99.90;;;;;;4951600;28;20077;-81
2022/07/24 03:16:59;;;;;;;0.30;0.30;;;15.40;99.90;;;;;;4948805;28;20073;-81
2022/07/24 03:19:25;;;;;;;0.30;0.30;;;15.40;99.90;;;;;;4952796;28;20050;-81
2022/07/24 03:21:51;;;;;;;0.40;0.40;;;15.40;99.90;;;;;;4934112;28;20117;-81
2022/07/24 03:24:17;;;;;;;0.32;0.32;;;15.40;99.90;;;;;;4919064;28;20057;-81
2022/07/24 03:26:43;;;;;;;0.30;0.30;;;15.40;99.90;;;;;;4951580;28;20056;-81
2022/07/24 03:29:09;;;;;;;0.30;0.30;;;15.40;99.90;;;;;;4934292;28;20061;-81
2022/07/24 03:31:34;;;;;;;0.38;0.38;;;15.40;99.90;;;;;;4950568;28;20080;-80
2022/07/24 03:34:01;;;;;;;0.30;0.30;;;15.40;99.90;;;;;;4950842;28;20234;-81
2022/07/24 03:36:27;;;;;;;0.43;0.43;;;15.40;99.90;;;;;;4934673;28;20129;-81
2022/07/24 03:38:53;;;;;;;0.30;0.30;;;15.30;99.90;;;;;;4949912;28;22325;-82
2022/07/24 03:41:18;;;;;;;0.40;0.40;;;15.30;99.90;;;;;;4935026;28;20051;-81
2022/07/24 03:43:44;;;;;;;0.30;0.30;;;15.30;99.90;;;;;;4920873;28;20050;-82
2022/07/24 03:46:10;;;;;;;0.30;0.30;;;15.30;99.90;;;;;;4951875;28;20054;-81
2022/07/24 03:48:36;;;;;;;0.40;0.40;;;15.40;99.90;;;;;;4948797;28;20058;-81
2022/07/24 03:51:02;;;;;;;0.30;0.30;;;15.30;99.90;;;;;;4933472;28;20806;-81
2022/07/24 03:53:27;;;;;;;0.30;0.30;;;15.30;99.90;;;;;;4934180;28;20065;-82
2022/07/24 03:55:53;;;;;;;0.40;0.40;;;15.30;99.90;;;;;;4951256;28;20078;-81
2022/07/24 03:58:19;;;;;;;0.30;0.30;;;15.30;99.90;;;;;;4952930;28;20141;-81
2022/07/24 04:00:45;;;;;;;0.30;0.30;;;15.40;99.90;;;;;;4924706;28;20057;-82
2022/07/24 04:03:11;;;;;;;0.30;0.30;;;15.40;99.90;;;;;;4950312;28;20089;-81
2022/07/24 04:05:36;;;;;;;0.32;0.32;;;15.40;99.90;;;;;;4936321;28;20109;-81
2022/07/24 04:08:03;;;;;;;0.30;0.30;;;15.50;99.90;;;;;;4936272;28;20046;-81
2022/07/24 04:10:31;;;;;;;0.40;0.40;;;15.50;99.90;;;;;;4935735;28;20057;-82
2022/07/24 04:12:57;;;;;;;0.40;0.40;;;15.50;99.90;;;;;;4919562;28;20689;-82
2022/07/24 04:15:23;;;;;;;0.40;0.40;;;15.50;99.90;;;;;;4935502;28;20042;-80
2022/07/24 04:17:49;;;;;;;0.40;0.40;;;15.50;99.90;;;;;;4933353;28;20946;-82
2022/07/24 04:20:14;;;;;;;0.45;0.45;;;15.50;99.90;;;;;;4931433;28;20054;-81
2022/07/24 04:22:40;;;;;;;0.40;0.40;;;15.50;99.90;;;;;;4932799;28;21217;-81
2022/07/24 04:25:08;;;;;;;0.30;0.30;;;15.50;99.90;;;;;;4932924;28;20450;-81
2022/07/24 04:27:34;;;;;;;0.40;0.40;;;15.60;99.90;;;;;;4950789;28;20138;-83
2022/07/24 04:30:00;;;;;;;0.40;0.40;;;15.60;99.90;;;;;;4922253;28;20055;-81
2022/07/24 04:32:26;;;;;;;0.30;0.30;;;15.60;99.90;;;;;;4950197;28;20051;-83
2022/07/24 04:34:52;;;;;;;0.40;0.40;;;15.70;99.90;;;;;;4925173;28;20061;-82
2022/07/24 04:37:18;;;;;;;0.30;0.30;;;15.70;99.90;;;;;;4932672;28;21390;-82
2022/07/24 04:39:44;;;;;;;0.30;0.30;;;15.70;99.90;;;;;;4935262;28;20054;-82
2022/07/24 04:42:10;;;;;;;0.30;0.30;;;15.70;99.90;;;;;;4948075;28;20115;-82
2022/07/24 04:44:35;;;;;;;0.40;0.40;;;15.80;99.90;;;;;;4931668;28;20053;-81
2022/07/24 04:47:01;;;;;;;0.40;0.40;;;15.80;99.90;;;;;;4916161;28;20086;-81
2022/07/24 04:49:27;;;;;;;0.30;0.30;;;15.80;99.90;;;;;;4948169;28;20082;-82
2022/07/24 04:51:53;;;;;;;0.30;0.30;;;15.90;99.90;;;;;;4932509;28;20055;-82
2022/07/24 04:54:19;;;;;;;0.35;0.35;;;16.00;99.90;;;;;;4946310;28;20051;-81
2022/07/24 04:56:45;;;;;;;0.30;0.30;;;16.00;99.90;;;;;;4929644;28;20055;-81
2022/07/24 04:59:10;;;;;;;0.40;0.40;;;16.10;99.90;;;;;;4932940;28;20074;-81
2022/07/24 05:01:36;;;;;;;0.30;0.30;;;16.50;99.90;;;;;;4932648;28;20047;-81
2022/07/24 05:04:02;;;;;;;0.30;0.30;;;17.30;99.90;;;;;;4931742;28;20498;-81
2022/07/24 05:06:28;;;;;;;0.30;0.30;;;18.20;99.90;;;;;;4934681;28;20043;-81
2022/07/24 05:08:54;;;;;;;0.30;0.30;;;18.80;99.90;;;;;;4941895;28;20055;-82
2022/07/24 05:11:20;;;;;;;0.30;0.30;;;19.30;99.90;;;;;;4924294;28;20051;-81
2022/07/24 05:13:45;;;;;;;0.40;0.40;;;18.60;99.90;;;;;;4922899;28;20066;-82
2022/07/24 05:16:11;;;;;;;0.30;0.30;;;19.00;99.90;;;;;;4933958;28;20047;-81
2022/07/24 05:18:37;;;;;;;0.30;0.30;;;19.80;99.90;;;;;;4931592;28;20437;-82
2022/07/24 05:21:03;;;;;;;0.30;0.30;;;20.10;99.90;;;;;;4930831;28;20069;-82
2022/07/24 05:23:29;;;;;;;0.30;0.30;;;19.90;99.90;;;;;;4935101;28;20051;-81
2022/07/24 05:25:55;;;;;;;0.30;0.30;;;20.10;99.90;;;;;;4933166;28;20047;-82
2022/07/24 05:28:21;;;;;;;0.30;0.30;;;21.10;99.90;;;;;;4925202;28;20064;-83
2022/07/24 05:30:46;;;;;;;0.30;0.30;;;22.00;99.90;;;;;;4932706;28;20054;-82
2022/07/24 05:33:12;;;;;;;0.30;0.30;;;22.70;99.90;;;;;;4949625;28;20075;-82
2022/07/24 05:35:38;;;;;;;0.30;0.30;;;23.20;99.90;;;;;;4931646;28;20043;-83
2022/07/24 05:38:04;;;;;;;0.30;0.30;;;23.50;99.90;;;;;;4933202;28;20043;-82
2022/07/24 05:40:30;;;;;;;0.30;0.30;;;23.20;99.90;;;;;;4935516;28;20061;-82
2022/07/24 05:42:55;;;;;;;0.50;0.50;;;23.70;99.90;;;;;;4934667;28;20075;-82
2022/07/24 05:45:21;;;;;;;0.30;0.30;;;24.30;99.90;;;;;;4932082;28;20066;-82
2022/07/24 05:47:47;;;;;;;0.30;0.30;;;25.00;99.90;;;;;;4934027;28;20110;-82
2022/07/24 05:50:14;;;;;;;0.30;0.30;;;24.60;99.90;;;;;;4934744;28;20054;-83
2022/07/24 05:52:40;;;;;;;0.20;0.20;;;23.60;99.90;;;;;;4936030;28;20460;-82
2022/07/24 05:55:08;;;;;;;0.30;0.30;;;22.90;99.90;;;;;;4932282;28;20051;-83
2022/07/24 05:57:34;;;;;;;0.30;0.30;;;22.60;99.90;;;;;;4933944;28;20047;-84
2022/07/24 06:00:00;;;;;;;0.30;0.30;;;22.30;99.90;;;;;;4949363;28;20051;-83
2022/07/24 06:02:26;;;;;;;0.40;0.40;;;22.10;99.90;;;;;;4934070;28;20051;-83
2022/07/24 06:04:52;;;;;;;0.30;0.30;;;22.00;99.90;;;;;;4934079;28;20118;-82
2022/07/24 06:07:18;;;;;;;0.30;0.30;;;22.10;99.90;;;;;;4935614;28;20047;-83
2022/07/24 06:09:43;;;;;;;0.30;0.30;;;22.20;99.90;;;;;;4931366;28;20888;-83
2022/07/24 06:12:09;;;;;;;0.30;0.30;;;22.80;99.90;;;;;;4917031;28;20135;-84
2022/07/24 06:14:35;;;;;;;0.30;0.30;;;23.10;99.90;;;;;;4932455;28;21015;-83
2022/07/24 06:17:23;;;;;;;0.20;0.20;;;23.40;99.90;;;;;;4945167;28;20077;-82
2022/07/24 06:19:49;;;;;;;0.30;0.30;;;23.50;99.90;;;;;;4935051;28;20142;-82
2022/07/24 06:22:14;;;;;;;0.30;0.30;;;23.90;99.90;;;;;;4934420;28;20090;-82
2022/07/24 06:24:40;;;;;;;0.30;0.30;;;23.80;99.90;;;;;;4935570;28;20086;-80
2022/07/24 06:27:07;;;;;;;0.20;0.20;;;23.40;99.90;;;;;;4932797;28;20090;-81
2022/07/24 06:29:33;;;;;;;0.20;0.20;;;23.70;99.90;;;;;;4934387;28;20059;-82
2022/07/24 06:31:59;;;;;;;0.20;0.20;;;23.70;99.90;;;;;;4931941;28;20051;-79
2022/07/24 06:34:24;;;;;;;0.20;0.20;;;23.80;99.90;;;;;;4943032;28;20050;-82
2022/07/24 06:36:53;;;;;;;0.20;0.20;;;23.40;99.90;;;;;;4932085;28;20059;-80
2022/07/24 06:39:19;;;;;;;0.20;0.20;;;23.10;99.90;;;;;;4916328;28;20082;-80
2022/07/24 06:41:45;;;;;;;0.30;0.30;;;22.90;99.90;;;;;;4937901;28;20410;-82
2022/07/24 06:44:11;;;;;;;0.30;0.30;;;22.80;99.90;;;;;;4919117;28;20079;-80
2022/07/24 06:46:37;;;;;;;0.30;0.30;;;22.80;99.90;;;;;;4949030;28;20532;-80
2022/07/24 06:49:03;;;;;;;0.20;0.20;;;22.60;99.90;;;;;;4951089;28;20053;-81
2022/07/24 06:51:29;;;;;;;0.30;0.30;;;22.50;99.90;;;;;;4950029;28;20038;-82
2022/07/24 06:53:55;;;;;;;0.35;0.35;;;22.70;99.90;;;;;;4921691;28;20083;-79
2022/07/24 06:56:21;;;;;;;0.22;0.22;;;22.90;99.90;;;;;;4953769;28;20043;-80
2022/07/24 06:58:47;;;;;;;0.30;0.30;;;22.90;99.90;;;;;;4937718;28;20643;-81
2022/07/24 07:01:12;;;;;;;0.30;0.30;;;22.90;99.90;;;;;;4952671;28;20055;-81
2022/07/24 07:03:38;;;;;;;0.30;0.30;;;23.00;99.90;;;;;;4952291;28;20049;-81
2022/07/24 07:06:04;;;;;;;0.20;0.20;;;23.00;99.90;;;;;;4938876;28;20153;-81
2022/07/24 07:08:30;;;;;;;0.52;0.30;;;23.10;99.90;;;;;;4934889;28;20054;-79
2022/07/24 07:10:56;;;;;;;0.22;0.22;;;23.10;99.90;;;;;;4954535;28;20433;-81
2022/07/24 07:13:22;;;;;;;0.32;0.32;;;23.20;99.90;;;;;;4951816;28;20049;-81
2022/07/24 07:15:48;;;;;;;0.40;0.40;;;23.20;99.90;;;;;;4938592;28;20596;-84
2022/07/24 07:18:14;;;;;;;0.30;0.30;;;23.30;99.90;;;;;;4940823;28;20050;-82
2022/07/24 07:20:40;;;;;;;0.20;0.20;;;23.30;99.90;;;;;;4939241;28;20046;-82
2022/07/24 07:23:06;;;;;;;0.30;0.30;;;23.20;99.90;;;;;;4953640;28;20054;-81
2022/07/24 07:25:32;;;;;;;0.40;0.40;;;23.40;99.90;;;;;;4954355;28;20057;-80
2022/07/24 07:27:58;;;;;;;0.20;0.20;;;23.40;99.90;;;;;;4955177;28;20050;-81
2022/07/24 07:30:23;;;;;;;0.30;0.30;;;23.80;99.90;;;;;;4947623;28;20153;-81
2022/07/24 07:32:50;;;;;;;0.20;0.20;;;23.70;99.90;;;;;;4949697;28;20062;-81
2022/07/24 07:35:16;;;;;;;0.40;0.40;;;23.90;99.90;;;;;;4946149;28;20457;-80
2022/07/24 07:37:46;;;;;;;0.20;0.20;;;24.00;99.90;;;;;;4950199;28;20047;-80
2022/07/24 07:40:12;;;;;;;0.28;0.28;;;24.10;99.90;;;;;;4957003;28;20050;-81
2022/07/24 07:42:37;;;;;;;0.30;0.30;;;24.20;99.90;;;;;;4937559;28;20459;-79
2022/07/24 07:45:04;;;;;;;0.20;0.20;;;24.20;99.90;;;;;;4952382;28;20601;-80
2022/07/24 07:47:30;;;;;;;0.20;0.20;;;24.30;99.90;;;;;;4952865;28;20049;-80
2022/07/24 07:49:55;;;;;;;0.20;0.20;;;24.40;99.90;;;;;;4928200;28;20055;-79
2022/07/24 07:52:21;;;;;;;0.20;0.20;;;24.80;99.90;;;;;;4954343;28;20051;-80
2022/07/24 07:54:47;;;;;;;0.20;0.20;;;24.70;99.90;;;;;;4953455;28;20468;-80
2022/07/24 07:57:13;;;;;;;0.22;0.22;;;24.80;99.90;;;;;;4935929;28;20042;-79
2022/07/24 07:59:39;;;;;;;0.20;0.20;;;24.80;99.90;;;;;;4933979;28;20083;-80
2022/07/24 08:02:04;;;;;;;0.25;0.25;;;24.80;99.90;;;;;;4937209;28;21249;-82
2022/07/24 08:04:30;;;;;;;0.30;0.30;;;24.90;99.90;;;;;;4931782;28;20057;-82
2022/07/24 08:06:56;;;;;;;0.30;0.30;;;24.90;99.90;;;;;;4934533;28;20054;-80
2022/07/24 08:09:22;;;;;;;0.22;0.22;;;25.00;99.90;;;;;;4933813;28;20055;-80
2022/07/24 08:11:49;;;;;;;0.25;0.25;;;25.20;99.90;;;;;;4951831;28;20129;-82
2022/07/24 08:14:15;;;;;;;0.20;0.20;;;25.10;99.90;;;;;;4922355;28;20046;-83
2022/07/24 08:16:41;;;;;;;0.30;0.30;;;25.00;99.90;;;;;;4937156;28;20341;-80
2022/07/24 08:19:07;;;;;;;0.22;0.22;;;25.30;99.90;;;;;;4951591;28;20791;-80
2022/07/24 08:21:33;;;;;;;0.20;0.20;;;25.40;99.90;;;;;;4956167;28;20073;-82
2022/07/24 08:23:59;;;;;;;0.28;0.28;;;25.40;99.90;;;;;;4931145;28;20251;-83
2022/07/24 08:26:25;;;;;;;0.30;0.30;;;25.40;99.90;;;;;;4939928;28;20342;-81
2022/07/24 08:28:51;;;;;;;0.30;0.30;;;25.70;99.90;;;;;;4928686;28;20050;-84
2022/07/24 08:31:16;;;;;;;0.30;0.30;;;25.80;99.90;;;;;;4916079;28;20050;-81
2022/07/24 08:33:42;;;;;;;0.20;0.20;;;25.60;99.90;;;;;;4912071;28;20066;-81
2022/07/24 08:36:08;;;;;;;0.30;0.30;;;25.90;99.90;;;;;;4915431;28;20042;-80
2022/07/24 08:38:34;;;;;;;0.30;0.30;;;25.80;99.90;;;;;;4888713;28;20050;-82
2022/07/24 08:40:59;;;;;;;0.30;0.30;;;25.80;99.90;;;;;;4932295;28;20054;-79
2022/07/24 08:43:25;;;;;;;0.30;0.30;;;26.20;99.90;;;;;;4911550;28;20543;-80
2022/07/24 08:45:55;;;;;;;0.30;0.30;;;26.30;99.90;;;;;;4915908;28;20073;-83
2022/07/24 08:48:21;;;;;;;0.30;0.30;;;26.20;99.90;;;;;;4928906;28;20058;-80
2022/07/24 08:50:47;;;;;;;0.25;0.25;;;26.30;99.90;;;;;;4925707;28;20053;-80
2022/07/24 08:53:13;;;;;;;0.20;0.20;;;26.30;99.90;;;;;;4923241;28;20077;-79
2022/07/24 08:55:39;;;;;;;0.20;0.20;;;26.40;99.90;;;;;;4927845;28;20051;-81
2022/07/24 08:58:05;;;;;;;0.30;0.30;;;26.50;99.90;;;;;;4895763;28;21397;-82
2022/07/24 09:00:33;;;;;;;0.28;0.28;;;26.50;99.90;;;;;;4905437;28;20062;-84
2022/07/24 09:02:59;;;;;;;0.35;0.35;;;26.30;99.90;;;;;;4911095;28;21002;-80
2022/07/24 09:05:25;;;;;;;0.20;0.20;;;26.20;99.90;;;;;;4889319;28;20054;-81
2022/07/24 09:08:14;;;;;;;0.20;0.20;;;26.10;99.90;;;;;;4933634;28;20139;-80
2022/07/24 09:10:40;;;;;;;0.28;0.28;;;26.20;99.90;;;;;;4936624;28;20251;-81
2022/07/24 09:13:17;;;;;;;0.20;0.20;;;26.50;99.90;;;;;;4920382;28;20137;-81
2022/07/24 09:15:49;;;;;;;0.20;0.20;;;26.30;99.90;;;;;;4941588;28;20042;-81
2022/07/24 09:18:29;;;;;;;0.30;0.30;;;26.50;99.90;;;;;;4930147;28;20088;-81
2022/07/24 09:20:55;;;;;;;0.20;0.20;;;26.80;99.90;;;;;;4931300;28;20457;-78
2022/07/24 09:23:21;;;;;;;0.20;0.20;;;26.80;99.90;;;;;;4925870;28;20537;-80
2022/07/24 09:25:52;;;;;;;0.20;0.20;;;27.00;99.90;;;;;;4956073;28;20046;-81
2022/07/24 09:28:19;;;;;;;0.20;0.20;;;27.10;99.90;;;;;;4948916;28;20043;-82
2022/07/24 09:30:46;;;;;;;0.20;0.20;;;27.30;99.90;;;;;;4948293;28;20062;-80
2022/07/24 09:33:12;;;;;;;0.30;0.30;;;27.50;99.90;;;;;;4918678;28;20061;-81
2022/07/24 09:35:43;;;;;;;0.20;0.20;;;27.30;99.90;;;;;;4918300;28;20783;-82
2022/07/24 09:38:12;;;;;;;0.28;0.28;;;27.20;99.90;;;;;;4923409;28;20053;-79
2022/07/24 09:40:42;;;;;;;0.20;0.20;;;27.60;99.90;;;;;;4923224;28;20534;-80
2022/07/24 09:43:17;;;;;;;0.20;0.20;;;27.60;99.90;;;;;;4931743;28;20078;-81
2022/07/24 09:46:00;;;;;;;0.20;0.20;;;27.80;99.90;;;;;;4937609;28;20097;-79
2022/07/24 09:48:32;;;;;;;0.25;0.25;;;27.70;99.90;;;;;;4928601;28;20043;-81
2022/07/24 09:51:03;;;;;;;0.30;0.30;;;27.90;99.90;;;;;;4922679;28;21357;-79
2022/07/24 09:53:31;;;;;;;0.20;0.20;;;28.10;99.90;;;;;;4932630;28;20063;-84
2022/07/24 09:56:17;;;;;;;0.20;0.20;;;28.10;99.90;;;;;;4901840;28;20066;-79
2022/07/24 09:58:46;;;;;;;0.30;0.30;;;28.10;99.90;;;;;;4931865;28;20506;-81
2022/07/24 10:01:14;;;;;;;0.28;0.28;;;28.00;99.90;;;;;;4938043;28;20049;-83
2022/07/24 10:03:42;;;;;;;0.20;0.20;;;28.10;99.90;;;;;;4937457;28;20169;-82
2022/07/24 10:06:10;;;;;;;0.20;0.20;;;28.20;99.90;;;;;;4938433;28;20388;-82
2022/07/24 10:08:40;;;;;;;0.30;0.30;;;28.20;99.90;;;;;;4941031;28;20054;-81
2022/07/24 10:11:07;;;;;;;0.20;0.20;;;28.30;99.90;;;;;;4933970;28;20718;-83
2022/07/24 10:13:34;;;;;;;0.25;0.25;;;28.50;99.90;;;;;;4933481;28;20633;-82
2022/07/24 10:16:12;;;;;;;0.20;0.20;;;28.60;99.90;;;;;;4921954;28;20058;-80
2022/07/24 10:18:49;;;;;;;0.28;0.28;;;28.70;99.90;;;;;;4934084;28;20051;-83
2022/07/24 10:21:36;;;;;;;0.30;0.30;;;28.70;99.90;;;;;;4933074;28;20106;-80
2022/07/24 10:24:23;;;;;;;0.20;0.20;;;28.50;99.90;;;;;;4934409;28;20054;-82
2022/07/24 10:26:50;;;;;;;0.20;0.20;;;28.80;99.90;;;;;;4932664;28;20270;-83
2022/07/24 10:29:24;;;;;;;0.22;0.22;;;28.80;99.70;;;;;;4932612;28;20094;-81
2022/07/24 10:31:55;;;;;;;0.20;0.20;;;28.70;99.90;;;;;;4926160;28;20398;-82
2022/07/24 10:34:24;;;;;;;0.20;0.20;;;29.00;99.90;;;;;;4911465;28;20113;-83
2022/07/24 10:37:09;;;;;;;0.20;0.20;;;28.90;98.50;;;;;;4919086;28;20137;-83
2022/07/24 10:40:02;;;;;;;0.20;0.20;;;28.80;98.40;;;;;;4915968;28;20541;-83
2022/07/24 10:42:28;;;;;;;0.30;0.30;;;29.00;98.10;;;;;;4928039;28;20051;-81
2022/07/24 10:45:29;;;;;;;0.20;0.20;;;29.10;98.10;;;;;;4930499;28;20089;-81
2022/07/24 10:47:55;;;;;;;0.20;0.20;;;29.30;98.20;;;;;;4890117;28;20059;-82
2022/07/24 10:50:22;;;;;;;0.20;0.20;;;29.40;98.90;;;;;;4948969;28;20062;-81
2022/07/24 10:52:47;;;;;;;0.30;0.30;;;29.40;96.90;;;;;;4937829;28;20468;-81
2022/07/24 10:55:33;;;;;;;0.30;0.30;;;29.40;97.60;;;;;;4956428;28;20125;-82
2022/07/24 10:58:21;;;;;;;0.20;0.20;;;29.50;97.40;;;;;;4942514;28;20142;-83
2022/07/24 11:00:49;;;;;;;0.20;0.20;;;29.50;97.70;;;;;;4950630;28;20082;-81
2022/07/24 11:03:23;;;;;;;0.25;0.25;;;29.10;96.30;;;;;;4954316;28;20094;-84
2022/07/24 11:06:10;;;;;;;0.30;0.30;;;29.10;97.70;;;;;;4935652;28;20089;-79
2022/07/24 11:08:49;;;;;;;0.20;0.20;;;29.40;98.40;;;;;;4949737;28;20672;-79
2022/07/24 11:11:16;;;;;;;0.22;0.22;;;29.70;98.50;;;;;;4941637;28;20051;-82
2022/07/24 11:13:44;;;;;;;0.20;0.20;;;29.90;97.90;;;;;;4918319;28;20054;-81
2022/07/24 11:16:10;;;;;;;0.30;0.30;;;30.10;99.00;;;;;;4932265;28;20051;-84
2022/07/24 11:18:36;;;;;;;0.20;0.20;;;30.10;97.90;;;;;;4920072;28;20053;-82
2022/07/24 11:21:03;;;;;;;0.20;0.20;;;30.00;97.00;;;;;;4898515;28;20534;-81
2022/07/24 11:23:29;;;;;;;0.20;0.20;;;29.90;96.30;;;;;;4919556;28;20051;-83
2022/07/24 11:26:32;;;;;;;0.20;0.20;;;30.50;97.90;;;;;;4919383;28;20862;-81
2022/07/24 11:29:14;;;;;;;0.20;0.20;;;30.70;96.70;;;;;;4921694;28;20065;-81
2022/07/24 11:31:43;;;;;;;0.20;0.20;;;30.50;97.60;;;;;;4941860;28;20046;-81
2022/07/24 11:34:09;;;;;;;0.30;0.30;;;29.90;96.40;;;;;;4914353;28;20506;-81
2022/07/24 11:36:36;;;;;;;0.20;0.20;;;30.10;96.80;;;;;;4925718;28;20054;-82
2022/07/24 11:39:05;;;;;;;0.20;0.20;;;30.50;95.50;;;;;;4936246;28;20046;-83
2022/07/24 11:41:49;;;;;;;0.25;0.25;;;31.00;97.00;;;;;;4906519;28;20953;-83
2022/07/24 11:44:23;;;;;;;0.20;0.20;;;30.70;96.00;;;;;;4944144;28;20133;-84
2022/07/24 11:46:48;;;;;;;;;;;30.60;95.30;;;;;;4918954;28;20059;-81
2022/07/24 11:49:14;;;;;;;0.20;0.20;;;30.90;96.10;;;;;;4939270;28;19933;-83
2022/07/24 11:51:45;;;;;;;0.20;0.20;;;30.90;95.30;;;;;;4923101;28;20192;-82
2022/07/24 11:54:12;;;;;;;0.20;0.20;;;31.00;95.50;;;;;;4931155;28;20057;-83
2022/07/24 11:56:39;;;;;;;0.25;0.25;;;31.00;94.60;;;;;;4941514;28;20039;-81
2022/07/24 11:59:04;;;;;;;0.20;0.20;;;30.70;94.50;;;;;;4922141;28;20101;-81
2022/07/24 12:01:30;;;;;;;0.20;0.20;;;30.70;94.50;;;;;;4936392;28;20078;-81
2022/07/24 12:03:58;;;;;;;0.20;0.20;;;30.90;95.30;;;;;;4951952;28;20145;-82
2022/07/24 12:06:28;;;;;;;0.20;0.20;;;30.90;95.20;;;;;;4949504;28;20050;-81
2022/07/24 12:09:05;;;;;;;0.20;0.20;;;30.90;94.40;;;;;;4954536;28;20053;-83
2022/07/24 12:11:35;;;;;;;0.20;0.20;;;31.00;93.90;;;;;;4926914;28;20049;-82
2022/07/24 12:14:04;;;;;;;0.20;0.20;;;31.00;94.90;;;;;;4928582;28;20086;-85
2022/07/24 12:16:29;;;;;;;0.20;0.20;;;30.80;93.90;;;;;;4943326;28;20130;-81
2022/07/24 12:19:15;;;;;;;0.30;0.30;;;30.90;94.20;;;;;;4948704;28;20509;-82
2022/07/24 12:21:42;;;;;;;0.30;0.30;;;30.90;91.30;;;;;;4931569;28;20050;-82
2022/07/24 12:24:08;;;;;;;0.20;0.20;;;30.90;94.80;;;;;;4923229;28;20042;-83
2022/07/24 12:26:34;;;;;;;0.20;0.20;;;31.00;94.20;;;;;;4935989;28;20039;-84
2022/07/24 12:29:12;;;;;;;0.20;0.20;;;30.80;93.40;;;;;;4926656;28;20059;-83
2022/07/24 12:31:38;;;;;;;0.20;0.20;;;31.10;93.20;;;;;;4946646;28;21017;-84
2022/07/24 12:34:06;;;;;;;0.20;0.20;;;31.20;93.80;;;;;;4927989;28;20058;-83
2022/07/24 12:36:32;;;;;;;0.20;0.20;;;31.40;94.70;;;;;;4948872;28;20057;-83
2022/07/24 12:38:59;;;;;;;0.20;0.20;;;31.40;94.00;;;;;;4941811;28;20046;-83
2022/07/24 12:41:27;;;;;;;0.20;0.20;;;31.30;93.80;;;;;;4928979;28;21137;-83
2022/07/24 12:43:57;;;;;;;0.20;0.20;;;31.20;93.60;;;;;;4942804;28;20042;-83
2022/07/24 12:46:33;;;;;;;0.20;0.20;;;31.40;93.70;;;;;;4929136;28;20051;-85
2022/07/24 12:49:16;;;;;;;0.20;0.20;;;31.30;93.30;;;;;;4927344;28;20802;-83
2022/07/24 12:52:02;;;;;;;0.20;0.20;;;31.40;93.70;;;;;;4929469;28;20046;-84